sensor_id;sensor_type;location;lat;lon;timestamp;P1;durP1;ratioP1;P2;durP2;ratioP2
13244;SDS011;6689;53.400;12.486;2022-07-30T00:00:19;1999.90;;;999.90;;
13244;SDS011;6689;53.400;12.486;2022-07-30T00:02:49;1999.90;;;999.90;;
13244;SDS011;6689;53.400;12.486;2022-07-30T00:05:19;1999.90;;;999.90;;
13244;SDS011;6689;53.400;12.486;2022-07-30T00:07:48;1999.90;;;999.90;;
13244;SDS011;6689;53.400;12.486;2022-07-30T00:10:15;1999.90;;;999.90;;
13244;SDS011;6689;53.400;12.486;2022-07-30T00:12:43;1999.90;;;999.90;;
13244;SDS011;6689;53.400;12.486;2022-07-30T00:15:10;1999.90;;;999.90;;
13244;SDS011;6689;53.400;12.486;2022-07-30T00:17:40;1999.90;;;999.90;;
13244;SDS011;6689;53.400;12.486;2022-07-30T00:20:10;21.42;;;20.52;;
13244;SDS011;6689;53.400;12.486;2022-07-30T00:22:41;37.40;;;35.88;;
13244;SDS011;6689;53.400;12.486;2022-07-30T00:25:09;13.55;;;12.95;;
13244;SDS011;6689;53.400;12.486;2022-07-30T00:27:38;86.68;;;80.65;;
13244;SDS011;6689;53.400;12.486;2022-07-30T00:30:05;22.67;;;21.73;;
13244;SDS011;6689;53.400;12.486;2022-07-30T00:32:38;15.98;;;15.27;;
13244;SDS011;6689;53.400;12.486;2022-07-30T00:35:05;20.35;;;19.45;;
13244;SDS011;6689;53.400;12.486;2022-07-30T00:37:35;14.60;;;14.00;;
13244;SDS011;6689;53.400;12.486;2022-07-30T00:40:07;1999.90;;;999.90;;
13244;SDS011;6689;53.400;12.486;2022-07-30T00:42:36;1999.90;;;999.90;;
13244;SDS011;6689;53.400;12.486;2022-07-30T00:45:11;1999.90;;;999.90;;
13244;SDS011;6689;53.400;12.486;2022-07-30T00:47:41;1999.90;;;999.90;;
13244;SDS011;6689;53.400;12.486;2022-07-30T00:50:15;33.85;;;32.45;;
13244;SDS011;6689;53.400;12.486;2022-07-30T00:52:43;1023.33;;;522.38;;
13244;SDS011;6689;53.400;12.486;2022-07-30T00:55:12;37.20;;;35.70;;
13244;SDS011;6689;53.400;12.486;2022-07-30T00:57:40;34.53;;;33.13;;
13244;SDS011;6689;53.400;12.486;2022-07-30T01:00:12;1999.90;;;999.90;;
13244;SDS011;6689;53.400;12.486;2022-07-30T01:02:45;33.35;;;31.95;;
13244;SDS011;6689;53.400;12.486;2022-07-30T01:05:13;38.03;;;36.45;;
13244;SDS011;6689;53.400;12.486;2022-07-30T01:07:40;44.85;;;42.92;;
13244;SDS011;6689;53.400;12.486;2022-07-30T01:10:10;29.77;;;28.58;;
13244;SDS011;6689;53.400;12.486;2022-07-30T01:12:41;43.38;;;41.58;;
13244;SDS011;6689;53.400;12.486;2022-07-30T01:15:10;31.52;;;30.23;;
13244;SDS011;6689;53.400;12.486;2022-07-30T01:17:46;26.15;;;25.05;;
13244;SDS011;6689;53.400;12.486;2022-07-30T01:20:22;37.42;;;35.88;;
13244;SDS011;6689;53.400;12.486;2022-07-30T01:22:53;22.92;;;21.95;;
13244;SDS011;6689;53.400;12.486;2022-07-30T01:28:21;1999.90;;;999.90;;
13244;SDS011;6689;53.400;12.486;2022-07-30T01:30:55;1999.90;;;999.90;;
13244;SDS011;6689;53.400;12.486;2022-07-30T01:33:26;1999.90;;;999.90;;
13244;SDS011;6689;53.400;12.486;2022-07-30T01:36:00;1999.90;;;999.90;;
13244;SDS011;6689;53.400;12.486;2022-07-30T01:38:31;1999.90;;;999.90;;
13244;SDS011;6689;53.400;12.486;2022-07-30T01:41:01;1999.90;;;999.90;;
13244;SDS011;6689;53.400;12.486;2022-07-30T01:43:34;1999.90;;;999.90;;
13244;SDS011;6689;53.400;12.486;2022-07-30T01:46:01;1999.90;;;999.90;;
13244;SDS011;6689;53.400;12.486;2022-07-30T01:48:32;1999.90;;;999.90;;
13244;SDS011;6689;53.400;12.486;2022-07-30T01:51:04;1999.90;;;999.90;;
13244;SDS011;6689;53.400;12.486;2022-07-30T01:53:36;1999.90;;;999.90;;
13244;SDS011;6689;53.400;12.486;2022-07-30T01:56:13;1999.90;;;999.90;;
13244;SDS011;6689;53.400;12.486;2022-07-30T01:58:41;1999.90;;;999.90;;
13244;SDS011;6689;53.400;12.486;2022-07-30T02:01:11;1999.90;;;999.90;;
13244;SDS011;6689;53.400;12.486;2022-07-30T02:03:41;1999.90;;;999.90;;
13244;SDS011;6689;53.400;12.486;2022-07-30T02:06:11;1999.90;;;999.90;;
13244;SDS011;6689;53.400;12.486;2022-07-30T02:08:50;1999.90;;;999.90;;
13244;SDS011;6689;53.400;12.486;2022-07-30T02:14:10;1999.90;;;999.90;;
13244;SDS011;6689;53.400;12.486;2022-07-30T02:16:46;1999.90;;;999.90;;
13244;SDS011;6689;53.400;12.486;2022-07-30T02:19:25;1999.90;;;999.90;;
13244;SDS011;6689;53.400;12.486;2022-07-30T02:22:01;1999.90;;;999.90;;
13244;SDS011;6689;53.400;12.486;2022-07-30T02:24:36;1999.90;;;999.90;;
13244;SDS011;6689;53.400;12.486;2022-07-30T02:27:11;1999.90;;;999.90;;
13244;SDS011;6689;53.400;12.486;2022-07-30T02:29:46;1999.90;;;999.90;;
13244;SDS011;6689;53.400;12.486;2022-07-30T02:32:19;1999.90;;;999.90;;
13244;SDS011;6689;53.400;12.486;2022-07-30T02:34:50;1999.90;;;999.90;;
13244;SDS011;6689;53.400;12.486;2022-07-30T02:37:21;1999.90;;;999.90;;
13244;SDS011;6689;53.400;12.486;2022-07-30T02:39:52;1999.90;;;999.90;;
13244;SDS011;6689;53.400;12.486;2022-07-30T02:42:22;1999.90;;;999.90;;
13244;SDS011;6689;53.400;12.486;2022-07-30T02:44:54;1999.90;;;999.90;;
13244;SDS011;6689;53.400;12.486;2022-07-30T02:47:25;1999.90;;;999.90;;
13244;SDS011;6689;53.400;12.486;2022-07-30T02:49:56;1999.90;;;999.90;;
13244;SDS011;6689;53.400;12.486;2022-07-30T02:52:26;1999.90;;;999.90;;
13244;SDS011;6689;53.400;12.486;2022-07-30T02:54:56;1999.90;;;999.90;;
13244;SDS011;6689;53.400;12.486;2022-07-30T02:57:30;1999.90;;;999.90;;
13244;SDS011;6689;53.400;12.486;2022-07-30T03:00:03;1999.90;;;999.90;;
13244;SDS011;6689;53.400;12.486;2022-07-30T03:02:36;1999.90;;;999.90;;
13244;SDS011;6689;53.400;12.486;2022-07-30T03:05:07;1999.90;;;999.90;;
13244;SDS011;6689;53.400;12.486;2022-07-30T03:07:40;1999.90;;;999.90;;
13244;SDS011;6689;53.400;12.486;2022-07-30T03:10:10;1999.90;;;999.90;;
13244;SDS011;6689;53.400;12.486;2022-07-30T03:12:43;1999.90;;;999.90;;
13244;SDS011;6689;53.400;12.486;2022-07-30T03:15:16;1999.90;;;999.90;;
13244;SDS011;6689;53.400;12.486;2022-07-30T03:17:49;1999.90;;;999.90;;
13244;SDS011;6689;53.400;12.486;2022-07-30T03:20:24;1999.90;;;999.90;;
13244;SDS011;6689;53.400;12.486;2022-07-30T03:22:56;1999.90;;;999.90;;
13244;SDS011;6689;53.400;12.486;2022-07-30T03:25:26;1999.90;;;999.90;;
13244;SDS011;6689;53.400;12.486;2022-07-30T03:27:58;1999.90;;;999.90;;
13244;SDS011;6689;53.400;12.486;2022-07-30T03:30:28;1999.90;;;999.90;;
13244;SDS011;6689;53.400;12.486;2022-07-30T03:33:02;1999.90;;;999.90;;
13244;SDS011;6689;53.400;12.486;2022-07-30T03:35:32;1999.90;;;999.90;;
13244;SDS011;6689;53.400;12.486;2022-07-30T03:38:02;1999.90;;;999.90;;
13244;SDS011;6689;53.400;12.486;2022-07-30T03:40:32;1999.90;;;999.90;;
13244;SDS011;6689;53.400;12.486;2022-07-30T03:43:03;1999.90;;;999.90;;
13244;SDS011;6689;53.400;12.486;2022-07-30T03:45:35;1999.90;;;999.90;;
13244;SDS011;6689;53.400;12.486;2022-07-30T03:48:03;1999.90;;;999.90;;
13244;SDS011;6689;53.400;12.486;2022-07-30T03:50:37;1999.90;;;999.90;;
13244;SDS011;6689;53.400;12.486;2022-07-30T03:53:08;1999.90;;;999.90;;
13244;SDS011;6689;53.400;12.486;2022-07-30T03:55:38;1999.90;;;999.90;;
13244;SDS011;6689;53.400;12.486;2022-07-30T03:58:13;1999.90;;;999.90;;
13244;SDS011;6689;53.400;12.486;2022-07-30T04:00:45;1999.90;;;999.90;;
13244;SDS011;6689;53.400;12.486;2022-07-30T04:03:13;1999.90;;;999.90;;
13244;SDS011;6689;53.400;12.486;2022-07-30T04:05:53;1999.90;;;999.90;;
13244;SDS011;6689;53.400;12.486;2022-07-30T04:08:22;1999.90;;;999.90;;
13244;SDS011;6689;53.400;12.486;2022-07-30T04:10:55;1999.90;;;999.90;;
13244;SDS011;6689;53.400;12.486;2022-07-30T04:13:26;1999.90;;;999.90;;
13244;SDS011;6689;53.400;12.486;2022-07-30T04:15:54;1999.90;;;999.90;;
13244;SDS011;6689;53.400;12.486;2022-07-30T04:18:27;1999.90;;;999.90;;
13244;SDS011;6689;53.400;12.486;2022-07-30T04:21:02;1999.90;;;999.90;;
13244;SDS011;6689;53.400;12.486;2022-07-30T04:23:38;1999.90;;;999.90;;
13244;SDS011;6689;53.400;12.486;2022-07-30T04:26:11;1999.90;;;999.90;;
13244;SDS011;6689;53.400;12.486;2022-07-30T04:28:43;1999.90;;;999.90;;
13244;SDS011;6689;53.400;12.486;2022-07-30T04:31:17;1999.90;;;999.90;;
13244;SDS011;6689;53.400;12.486;2022-07-30T04:33:46;1999.90;;;999.90;;
13244;SDS011;6689;53.400;12.486;2022-07-30T04:36:13;1999.90;;;999.90;;
13244;SDS011;6689;53.400;12.486;2022-07-30T04:38:43;1999.90;;;999.90;;
13244;SDS011;6689;53.400;12.486;2022-07-30T04:41:11;1999.90;;;999.90;;
13244;SDS011;6689;53.400;12.486;2022-07-30T04:43:38;1999.90;;;999.90;;
13244;SDS011;6689;53.400;12.486;2022-07-30T04:46:09;1999.90;;;999.90;;
13244;SDS011;6689;53.400;12.486;2022-07-30T04:48:43;1999.90;;;999.90;;
13244;SDS011;6689;53.400;12.486;2022-07-30T04:51:15;1999.90;;;999.90;;
13244;SDS011;6689;53.400;12.486;2022-07-30T04:53:47;1999.90;;;999.90;;
13244;SDS011;6689;53.400;12.486;2022-07-30T04:56:19;1999.90;;;999.90;;
13244;SDS011;6689;53.400;12.486;2022-07-30T04:58:53;1999.90;;;999.90;;
13244;SDS011;6689;53.400;12.486;2022-07-30T05:01:33;1999.90;;;999.90;;
13244;SDS011;6689;53.400;12.486;2022-07-30T05:04:03;1999.90;;;999.90;;
13244;SDS011;6689;53.400;12.486;2022-07-30T05:06:33;1999.90;;;999.90;;
13244;SDS011;6689;53.400;12.486;2022-07-30T05:09:04;1999.90;;;999.90;;
13244;SDS011;6689;53.400;12.486;2022-07-30T05:11:34;1999.90;;;999.90;;
13244;SDS011;6689;53.400;12.486;2022-07-30T05:14:04;1999.90;;;999.90;;
13244;SDS011;6689;53.400;12.486;2022-07-30T05:16:35;1999.90;;;999.90;;
13244;SDS011;6689;53.400;12.486;2022-07-30T05:19:03;1999.90;;;999.90;;
13244;SDS011;6689;53.400;12.486;2022-07-30T05:21:31;1999.90;;;999.90;;
13244;SDS011;6689;53.400;12.486;2022-07-30T05:23:58;1999.90;;;999.90;;
13244;SDS011;6689;53.400;12.486;2022-07-30T05:26:29;1999.90;;;999.90;;
13244;SDS011;6689;53.400;12.486;2022-07-30T05:28:58;1999.90;;;999.90;;
13244;SDS011;6689;53.400;12.486;2022-07-30T05:31:28;1999.90;;;999.90;;
13244;SDS011;6689;53.400;12.486;2022-07-30T05:33:59;1999.90;;;999.90;;
13244;SDS011;6689;53.400;12.486;2022-07-30T05:36:29;1999.90;;;999.90;;
13244;SDS011;6689;53.400;12.486;2022-07-30T05:38:59;1999.90;;;999.90;;
13244;SDS011;6689;53.400;12.486;2022-07-30T05:41:29;1999.90;;;999.90;;
13244;SDS011;6689;53.400;12.486;2022-07-30T05:44:00;1999.90;;;999.90;;
13244;SDS011;6689;53.400;12.486;2022-07-30T05:46:28;1999.90;;;999.90;;
13244;SDS011;6689;53.400;12.486;2022-07-30T05:48:58;1999.90;;;999.90;;
13244;SDS011;6689;53.400;12.486;2022-07-30T05:51:33;1999.90;;;999.90;;
13244;SDS011;6689;53.400;12.486;2022-07-30T05:54:00;1999.90;;;999.90;;
13244;SDS011;6689;53.400;12.486;2022-07-30T05:56:30;1999.90;;;999.90;;
13244;SDS011;6689;53.400;12.486;2022-07-30T05:59:00;1999.90;;;999.90;;
13244;SDS011;6689;53.400;12.486;2022-07-30T06:01:28;1999.90;;;999.90;;
13244;SDS011;6689;53.400;12.486;2022-07-30T06:03:57;1999.90;;;999.90;;
13244;SDS011;6689;53.400;12.486;2022-07-30T06:06:29;1999.90;;;999.90;;
13244;SDS011;6689;53.400;12.486;2022-07-30T06:08:57;1999.90;;;999.90;;
13244;SDS011;6689;53.400;12.486;2022-07-30T06:11:24;1999.90;;;999.90;;
13244;SDS011;6689;53.400;12.486;2022-07-30T06:13:52;1999.90;;;999.90;;
13244;SDS011;6689;53.400;12.486;2022-07-30T06:16:19;1999.90;;;999.90;;
13244;SDS011;6689;53.400;12.486;2022-07-30T06:18:49;1999.90;;;999.90;;
13244;SDS011;6689;53.400;12.486;2022-07-30T06:21:21;9.63;;;9.18;;
13244;SDS011;6689;53.400;12.486;2022-07-30T06:23:49;28.55;;;26.83;;
13244;SDS011;6689;53.400;12.486;2022-07-30T06:26:18;0.65;;;0.65;;
13244;SDS011;6689;53.400;12.486;2022-07-30T06:28:45;0.75;;;0.75;;
13244;SDS011;6689;53.400;12.486;2022-07-30T06:31:14;0.60;;;0.60;;
13244;SDS011;6689;53.400;12.486;2022-07-30T06:33:43;0.63;;;0.63;;
13244;SDS011;6689;53.400;12.486;2022-07-30T06:36:12;0.50;;;0.50;;
13244;SDS011;6689;53.400;12.486;2022-07-30T06:38:43;0.40;;;0.40;;
13244;SDS011;6689;53.400;12.486;2022-07-30T06:41:10;0.20;;;0.20;;
13244;SDS011;6689;53.400;12.486;2022-07-30T06:43:40;0.20;;;0.20;;
13244;SDS011;6689;53.400;12.486;2022-07-30T06:46:10;0.20;;;0.20;;
13244;SDS011;6689;53.400;12.486;2022-07-30T06:48:40;0.20;;;0.20;;
13244;SDS011;6689;53.400;12.486;2022-07-30T06:51:10;0.30;;;0.30;;
13244;SDS011;6689;53.400;12.486;2022-07-30T06:53:41;0.40;;;0.40;;
13244;SDS011;6689;53.400;12.486;2022-07-30T06:56:13;0.30;;;0.30;;
13244;SDS011;6689;53.400;12.486;2022-07-30T06:58:40;0.50;;;0.50;;
13244;SDS011;6689;53.400;12.486;2022-07-30T07:01:09;0.40;;;0.40;;
13244;SDS011;6689;53.400;12.486;2022-07-30T07:03:38;0.40;;;0.40;;
13244;SDS011;6689;53.400;12.486;2022-07-30T07:06:05;0.40;;;0.40;;
13244;SDS011;6689;53.400;12.486;2022-07-30T07:08:37;0.40;;;0.40;;
13244;SDS011;6689;53.400;12.486;2022-07-30T07:11:08;0.50;;;0.50;;
13244;SDS011;6689;53.400;12.486;2022-07-30T07:13:35;0.50;;;0.50;;
13244;SDS011;6689;53.400;12.486;2022-07-30T07:16:04;0.50;;;0.50;;
13244;SDS011;6689;53.400;12.486;2022-07-30T07:18:35;0.77;;;0.77;;
13244;SDS011;6689;53.400;12.486;2022-07-30T07:21:05;0.50;;;0.50;;
13244;SDS011;6689;53.400;12.486;2022-07-30T07:23:36;0.50;;;0.50;;
13244;SDS011;6689;53.400;12.486;2022-07-30T07:26:07;0.60;;;0.60;;
13244;SDS011;6689;53.400;12.486;2022-07-30T07:28:39;0.80;;;0.80;;
13244;SDS011;6689;53.400;12.486;2022-07-30T07:31:08;0.70;;;0.70;;
13244;SDS011;6689;53.400;12.486;2022-07-30T07:33:36;0.90;;;0.90;;
13244;SDS011;6689;53.400;12.486;2022-07-30T07:36:04;1.00;;;1.00;;
13244;SDS011;6689;53.400;12.486;2022-07-30T07:38:35;4.40;;;4.25;;
13244;SDS011;6689;53.400;12.486;2022-07-30T07:41:08;0.50;;;0.50;;
13244;SDS011;6689;53.400;12.486;2022-07-30T07:43:35;0.60;;;0.60;;
13244;SDS011;6689;53.400;12.486;2022-07-30T07:46:05;0.60;;;0.60;;
13244;SDS011;6689;53.400;12.486;2022-07-30T07:48:36;0.40;;;0.40;;
13244;SDS011;6689;53.400;12.486;2022-07-30T07:51:06;0.40;;;0.40;;
13244;SDS011;6689;53.400;12.486;2022-07-30T07:53:38;0.50;;;0.50;;
13244;SDS011;6689;53.400;12.486;2022-07-30T07:56:08;0.60;;;0.60;;
13244;SDS011;6689;53.400;12.486;2022-07-30T07:58:35;0.70;;;0.70;;
13244;SDS011;6689;53.400;12.486;2022-07-30T08:01:04;1.77;;;1.67;;
13244;SDS011;6689;53.400;12.486;2022-07-30T08:03:34;0.80;;;0.80;;
13244;SDS011;6689;53.400;12.486;2022-07-30T08:06:01;1.00;;;1.00;;
13244;SDS011;6689;53.400;12.486;2022-07-30T08:08:33;0.80;;;0.80;;
13244;SDS011;6689;53.400;12.486;2022-07-30T08:11:02;0.50;;;0.50;;
13244;SDS011;6689;53.400;12.486;2022-07-30T08:13:44;0.40;;;0.40;;
13244;SDS011;6689;53.400;12.486;2022-07-30T08:16:22;0.60;;;0.60;;
13244;SDS011;6689;53.400;12.486;2022-07-30T08:18:57;0.60;;;0.60;;
13244;SDS011;6689;53.400;12.486;2022-07-30T08:21:43;0.40;;;0.40;;
13244;SDS011;6689;53.400;12.486;2022-07-30T08:24:10;1096.05;;;587.15;;
13244;SDS011;6689;53.400;12.486;2022-07-30T08:26:54;1999.90;;;999.90;;
13244;SDS011;6689;53.400;12.486;2022-07-30T08:29:26;1999.90;;;999.90;;
13244;SDS011;6689;53.400;12.486;2022-07-30T08:32:02;1999.90;;;999.90;;
13244;SDS011;6689;53.400;12.486;2022-07-30T08:34:35;1999.90;;;999.90;;
13244;SDS011;6689;53.400;12.486;2022-07-30T08:37:04;1999.90;;;999.90;;
13244;SDS011;6689;53.400;12.486;2022-07-30T08:39:31;1999.90;;;999.90;;
13244;SDS011;6689;53.400;12.486;2022-07-30T08:42:04;1999.90;;;999.90;;
13244;SDS011;6689;53.400;12.486;2022-07-30T08:44:40;1999.90;;;999.90;;
13244;SDS011;6689;53.400;12.486;2022-07-30T08:47:15;1999.90;;;999.90;;
13244;SDS011;6689;53.400;12.486;2022-07-30T08:49:46;1999.90;;;999.90;;
13244;SDS011;6689;53.400;12.486;2022-07-30T08:52:16;1999.90;;;999.90;;
13244;SDS011;6689;53.400;12.486;2022-07-30T08:54:45;1999.90;;;999.90;;
13244;SDS011;6689;53.400;12.486;2022-07-30T08:57:16;1999.90;;;999.90;;
13244;SDS011;6689;53.400;12.486;2022-07-30T08:59:45;1999.90;;;999.90;;
13244;SDS011;6689;53.400;12.486;2022-07-30T09:02:15;1999.90;;;999.90;;
13244;SDS011;6689;53.400;12.486;2022-07-30T09:04:44;1999.90;;;999.90;;
13244;SDS011;6689;53.400;12.486;2022-07-30T09:07:11;1999.90;;;999.90;;
13244;SDS011;6689;53.400;12.486;2022-07-30T09:09:41;1999.90;;;999.90;;
13244;SDS011;6689;53.400;12.486;2022-07-30T09:15:11;1999.90;;;999.90;;
13244;SDS011;6689;53.400;12.486;2022-07-30T09:17:46;36.72;;;34.35;;
13244;SDS011;6689;53.400;12.486;2022-07-30T09:20:17;46.33;;;36.50;;
13244;SDS011;6689;53.400;12.486;2022-07-30T09:22:52;42.67;;;22.05;;
13244;SDS011;6689;53.400;12.486;2022-07-30T09:28:11;35.58;;;33.00;;
13244;SDS011;6689;53.400;12.486;2022-07-30T09:30:41;22.98;;;21.98;;
13244;SDS011;6689;53.400;12.486;2022-07-30T09:33:15;23.95;;;22.95;;
13244;SDS011;6689;53.400;12.486;2022-07-30T09:36:01;26.33;;;24.67;;
13244;SDS011;6689;53.400;12.486;2022-07-30T09:38:41;27.55;;;26.35;;
13244;SDS011;6689;53.400;12.486;2022-07-30T09:41:15;33.65;;;32.22;;
13244;SDS011;6689;53.400;12.486;2022-07-30T09:43:52;34.50;;;31.65;;
13244;SDS011;6689;53.400;12.486;2022-07-30T09:48:51;22.38;;;20.67;;
13244;SDS011;6689;53.400;12.486;2022-07-30T09:51:24;23.13;;;21.73;;
13244;SDS011;6689;53.400;12.486;2022-07-30T09:54:06;24.23;;;20.15;;
13244;SDS011;6689;53.400;12.486;2022-07-30T09:56:37;28.95;;;25.75;;
13244;SDS011;6689;53.400;12.486;2022-07-30T09:59:11;1999.90;;;999.90;;
13244;SDS011;6689;53.400;12.486;2022-07-30T10:01:56;1999.90;;;999.90;;
13244;SDS011;6689;53.400;12.486;2022-07-30T10:04:27;1999.90;;;999.90;;
13244;SDS011;6689;53.400;12.486;2022-07-30T10:06:57;1999.90;;;999.90;;
13244;SDS011;6689;53.400;12.486;2022-07-30T10:09:28;533.22;;;281.15;;
13244;SDS011;6689;53.400;12.486;2022-07-30T10:12:01;1999.90;;;999.90;;
13244;SDS011;6689;53.400;12.486;2022-07-30T10:14:36;1511.57;;;759.83;;
13244;SDS011;6689;53.400;12.486;2022-07-30T10:17:12;1511.78;;;761.28;;
13244;SDS011;6689;53.400;12.486;2022-07-30T10:19:42;75.70;;;58.70;;
13244;SDS011;6689;53.400;12.486;2022-07-30T10:22:11;46.85;;;44.30;;
13244;SDS011;6689;53.400;12.486;2022-07-30T10:24:42;17.50;;;16.52;;
13244;SDS011;6689;53.400;12.486;2022-07-30T10:27:12;16.30;;;15.60;;
13244;SDS011;6689;53.400;12.486;2022-07-30T10:29:42;22.40;;;21.50;;
13244;SDS011;6689;53.400;12.486;2022-07-30T10:32:12;34.00;;;31.02;;
13244;SDS011;6689;53.400;12.486;2022-07-30T10:34:42;30.15;;;28.85;;
13244;SDS011;6689;53.400;12.486;2022-07-30T10:37:12;35.35;;;31.23;;
13244;SDS011;6689;53.400;12.486;2022-07-30T10:39:49;47.28;;;43.13;;
13244;SDS011;6689;53.400;12.486;2022-07-30T10:42:26;36.25;;;33.75;;
13244;SDS011;6689;53.400;12.486;2022-07-30T10:45:18;1999.90;;;999.90;;
13244;SDS011;6689;53.400;12.486;2022-07-30T10:47:56;1999.90;;;999.90;;
13244;SDS011;6689;53.400;12.486;2022-07-30T10:50:26;1999.90;;;999.90;;
13244;SDS011;6689;53.400;12.486;2022-07-30T10:52:56;1999.90;;;999.90;;
13244;SDS011;6689;53.400;12.486;2022-07-30T10:55:27;1999.90;;;999.90;;
13244;SDS011;6689;53.400;12.486;2022-07-30T10:58:03;1999.90;;;999.90;;
13244;SDS011;6689;53.400;12.486;2022-07-30T11:03:27;1999.90;;;999.90;;
13244;SDS011;6689;53.400;12.486;2022-07-30T11:08:57;28.50;;;27.25;;
13244;SDS011;6689;53.400;12.486;2022-07-30T11:11:43;29.25;;;28.05;;
13244;SDS011;6689;53.400;12.486;2022-07-30T11:14:16;24.08;;;23.08;;
13244;SDS011;6689;53.400;12.486;2022-07-30T11:17:10;1999.90;;;999.90;;
13244;SDS011;6689;53.400;12.486;2022-07-30T11:22:46;34.13;;;32.70;;
13244;SDS011;6689;53.400;12.486;2022-07-30T11:28:06;20.77;;;19.88;;
13244;SDS011;6689;53.400;12.486;2022-07-30T11:30:33;21.35;;;20.45;;
13244;SDS011;6689;53.400;12.486;2022-07-30T11:36:09;15.75;;;15.05;;
13244;SDS011;6689;53.400;12.486;2022-07-30T11:38:53;12.82;;;12.23;;
13244;SDS011;6689;53.400;12.486;2022-07-30T11:41:27;10.43;;;9.98;;
13244;SDS011;6689;53.400;12.486;2022-07-30T11:46:58;40.40;;;38.75;;
13244;SDS011;6689;53.400;12.486;2022-07-30T11:49:34;33.95;;;32.55;;
13244;SDS011;6689;53.400;12.486;2022-07-30T11:52:06;1999.90;;;999.90;;
13244;SDS011;6689;53.400;12.486;2022-07-30T11:54:49;1999.90;;;999.90;;
13244;SDS011;6689;53.400;12.486;2022-07-30T11:57:18;1999.90;;;999.90;;
13244;SDS011;6689;53.400;12.486;2022-07-30T12:00:04;1999.90;;;999.90;;
13244;SDS011;6689;53.400;12.486;2022-07-30T12:02:33;30.85;;;29.55;;
13244;SDS011;6689;53.400;12.486;2022-07-30T12:05:05;1999.90;;;999.90;;
13244;SDS011;6689;53.400;12.486;2022-07-30T12:07:33;65.57;;;54.85;;
13244;SDS011;6689;53.400;12.486;2022-07-30T12:10:12;1512.15;;;761.25;;
13244;SDS011;6689;53.400;12.486;2022-07-30T12:12:43;1999.90;;;999.90;;
13244;SDS011;6689;53.400;12.486;2022-07-30T12:15:27;1999.90;;;999.90;;
13244;SDS011;6689;53.400;12.486;2022-07-30T12:20:27;593.47;;;334.75;;
13244;SDS011;6689;53.400;12.486;2022-07-30T12:22:57;1545.47;;;759.97;;
13244;SDS011;6689;53.400;12.486;2022-07-30T12:25:28;1999.90;;;999.90;;
13244;SDS011;6689;53.400;12.486;2022-07-30T12:27:58;1999.90;;;999.90;;
13244;SDS011;6689;53.400;12.486;2022-07-30T12:30:28;10.00;;;9.40;;
13244;SDS011;6689;53.400;12.486;2022-07-30T12:32:58;167.88;;;52.63;;
13244;SDS011;6689;53.400;12.486;2022-07-30T12:35:41;44.50;;;33.55;;
13244;SDS011;6689;53.400;12.486;2022-07-30T12:38:11;30.52;;;28.42;;
13244;SDS011;6689;53.400;12.486;2022-07-30T12:43:44;64.53;;;26.27;;
13244;SDS011;6689;53.400;12.486;2022-07-30T12:46:14;12.48;;;11.93;;
13244;SDS011;6689;53.400;12.486;2022-07-30T12:48:54;1.63;;;1.52;;
13244;SDS011;6689;53.400;12.486;2022-07-30T12:51:26;172.40;;;79.47;;
13244;SDS011;6689;53.400;12.486;2022-07-30T12:53:57;1999.90;;;999.90;;
13244;SDS011;6689;53.400;12.486;2022-07-30T12:56:29;1999.90;;;999.90;;
13244;SDS011;6689;53.400;12.486;2022-07-30T12:58:58;1999.90;;;999.90;;
13244;SDS011;6689;53.400;12.486;2022-07-30T13:04:09;1999.90;;;999.90;;
13244;SDS011;6689;53.400;12.486;2022-07-30T13:06:41;1999.90;;;999.90;;
13244;SDS011;6689;53.400;12.486;2022-07-30T13:09:16;1999.90;;;999.90;;
13244;SDS011;6689;53.400;12.486;2022-07-30T13:11:48;1999.90;;;999.90;;
13244;SDS011;6689;53.400;12.486;2022-07-30T13:14:18;1999.90;;;999.90;;
13244;SDS011;6689;53.400;12.486;2022-07-30T13:16:49;1999.90;;;999.90;;
13244;SDS011;6689;53.400;12.486;2022-07-30T13:19:18;1999.90;;;999.90;;
13244;SDS011;6689;53.400;12.486;2022-07-30T13:21:51;1999.90;;;999.90;;
13244;SDS011;6689;53.400;12.486;2022-07-30T13:24:18;1999.90;;;999.90;;
13244;SDS011;6689;53.400;12.486;2022-07-30T13:26:49;1999.90;;;999.90;;
13244;SDS011;6689;53.400;12.486;2022-07-30T13:29:18;1999.90;;;999.90;;
13244;SDS011;6689;53.400;12.486;2022-07-30T13:31:47;1999.90;;;999.90;;
13244;SDS011;6689;53.400;12.486;2022-07-30T13:34:18;1999.90;;;999.90;;
13244;SDS011;6689;53.400;12.486;2022-07-30T13:36:47;1999.90;;;999.90;;
13244;SDS011;6689;53.400;12.486;2022-07-30T13:39:16;1999.90;;;999.90;;
13244;SDS011;6689;53.400;12.486;2022-07-30T13:41:47;1999.90;;;999.90;;
13244;SDS011;6689;53.400;12.486;2022-07-30T13:44:14;1999.90;;;999.90;;
13244;SDS011;6689;53.400;12.486;2022-07-30T13:46:45;44.92;;;40.90;;
13244;SDS011;6689;53.400;12.486;2022-07-30T13:49:14;25.17;;;23.98;;
13244;SDS011;6689;53.400;12.486;2022-07-30T13:51:41;15.68;;;15.02;;
13244;SDS011;6689;53.400;12.486;2022-07-30T13:54:08;18.90;;;18.10;;
13244;SDS011;6689;53.400;12.486;2022-07-30T13:56:39;33.88;;;32.30;;
13244;SDS011;6689;53.400;12.486;2022-07-30T13:59:07;36.40;;;34.90;;
13244;SDS011;6689;53.400;12.486;2022-07-30T14:01:34;83.22;;;78.65;;
13244;SDS011;6689;53.400;12.486;2022-07-30T14:04:08;5.95;;;5.65;;
13244;SDS011;6689;53.400;12.486;2022-07-30T14:06:38;9.60;;;9.20;;
13244;SDS011;6689;53.400;12.486;2022-07-30T14:09:08;6.75;;;6.45;;
13244;SDS011;6689;53.400;12.486;2022-07-30T14:11:40;5.20;;;4.90;;
13244;SDS011;6689;53.400;12.486;2022-07-30T14:14:09;8.95;;;8.52;;
13244;SDS011;6689;53.400;12.486;2022-07-30T14:16:39;1.77;;;1.67;;
13244;SDS011;6689;53.400;12.486;2022-07-30T14:19:10;1.60;;;1.50;;
13244;SDS011;6689;53.400;12.486;2022-07-30T14:21:39;1.30;;;1.30;;
13244;SDS011;6689;53.400;12.486;2022-07-30T14:24:10;1.60;;;1.50;;
13244;SDS011;6689;53.400;12.486;2022-07-30T14:26:42;1.92;;;1.83;;
13244;SDS011;6689;53.400;12.486;2022-07-30T14:29:14;2.00;;;1.90;;
13244;SDS011;6689;53.400;12.486;2022-07-30T14:31:45;2.20;;;2.10;;
13244;SDS011;6689;53.400;12.486;2022-07-30T14:34:15;2.40;;;2.30;;
13244;SDS011;6689;53.400;12.486;2022-07-30T14:36:48;1.80;;;1.70;;
13244;SDS011;6689;53.400;12.486;2022-07-30T14:39:14;2.20;;;2.10;;
13244;SDS011;6689;53.400;12.486;2022-07-30T14:41:48;1.83;;;1.73;;
13244;SDS011;6689;53.400;12.486;2022-07-30T14:44:15;2.40;;;2.30;;
13244;SDS011;6689;53.400;12.486;2022-07-30T14:46:45;2.78;;;2.58;;
13244;SDS011;6689;53.400;12.486;2022-07-30T14:49:15;2.80;;;2.60;;
13244;SDS011;6689;53.400;12.486;2022-07-30T14:51:50;6.88;;;6.47;;
13244;SDS011;6689;53.400;12.486;2022-07-30T14:54:20;2.33;;;2.22;;
13244;SDS011;6689;53.400;12.486;2022-07-30T14:56:57;3.17;;;2.97;;
13244;SDS011;6689;53.400;12.486;2022-07-30T14:59:24;4.97;;;4.72;;
13244;SDS011;6689;53.400;12.486;2022-07-30T15:01:55;4.18;;;3.97;;
13244;SDS011;6689;53.400;12.486;2022-07-30T15:04:26;6.20;;;5.90;;
13244;SDS011;6689;53.400;12.486;2022-07-30T15:06:55;9.90;;;9.35;;
13244;SDS011;6689;53.400;12.486;2022-07-30T15:09:24;7.07;;;6.72;;